Terminal Aerodrome Forecast
Issued by NWS Cleveland, OH

Home | Current Version | Previous Version | Text Only | Print | Product List | Glossary On
Versions: 1 2 3 4 5 6 7 8 9 10 11 12 13 14 15 16 17 18 19 20
000
FTUS41 KCLE 210500 CCA
TAFERI
TAF COR
KERI 210547Z 2106/2206 19015G22KT 6SM -SHRA SCT050 BKN150
     FM210700 19015G22KT P6SM SCT050 BKN150
     FM211100 23012G20KT P6SM BKN050 OVC100
      TEMPO 2111/2114 6SM -SHRA
     FM211700 26012KT P6SM VCSH BKN025
     FM212100 28014G20KT P6SM VCSH BKN030
     FM220300 34010KT P6SM BKN030=

USA.gov is the U.S. government's official web portal to all federal, state and local government web resources and services.